createdAt,value
2018-08-03T00:00:07.430Z,9.37
2018-08-03T00:02:35.639Z,10.63
2018-08-03T00:05:03.844Z,11.87
2018-08-03T00:07:32.086Z,10.03
2018-08-03T00:10:00.287Z,10.23
2018-08-03T00:12:28.540Z,10.20
2018-08-03T00:14:56.746Z,11.63
2018-08-03T00:17:31.510Z,9.53
2018-08-03T00:19:59.710Z,10.17
2018-08-03T00:22:27.922Z,10.07
2018-08-03T00:24:56.110Z,11.17
2018-08-03T00:27:24.337Z,10.10
2018-08-03T00:29:52.530Z,10.40
2018-08-03T00:32:20.721Z,10.53
2018-08-03T00:34:48.909Z,11.43
2018-08-03T00:37:17.127Z,10.40
2018-08-03T00:39:45.321Z,10.50
2018-08-03T00:42:13.526Z,10.97
2018-08-03T00:44:41.750Z,10.73
2018-08-03T00:47:09.959Z,10.30
2018-08-03T00:49:38.158Z,11.33
2018-08-03T00:52:06.406Z,10.73
2018-08-03T00:54:34.627Z,10.43
2018-08-03T00:57:02.827Z,10.17
2018-08-03T00:59:31.009Z,10.87
2018-08-03T01:01:59.211Z,10.70
2018-08-03T01:04:27.404Z,10.33
2018-08-03T01:06:55.595Z,10.40
2018-08-03T01:09:23.809Z,9.60
2018-08-03T01:11:51.997Z,10.27
2018-08-03T01:14:20.182Z,10.00
2018-08-03T01:16:48.387Z,10.67
2018-08-03T01:19:16.572Z,11.00
2018-08-03T01:21:45.396Z,10.43
2018-08-03T01:24:13.606Z,10.40
2018-08-03T01:26:41.813Z,10.70
2018-08-03T01:29:10.013Z,10.90
2018-08-03T01:31:38.224Z,10.93
2018-08-03T01:34:06.438Z,10.90
2018-08-03T01:36:34.646Z,10.07
2018-08-03T01:39:03.046Z,10.47
2018-08-03T01:41:31.226Z,11.50
2018-08-03T01:43:59.406Z,10.50
2018-08-03T01:46:27.590Z,11.23
2018-08-03T01:48:55.767Z,11.07
2018-08-03T01:51:23.951Z,11.20
2018-08-03T01:53:52.143Z,11.10
2018-08-03T01:56:20.346Z,11.67
2018-08-03T01:58:48.536Z,12.73
2018-08-03T02:01:16.705Z,10.07
2018-08-03T02:03:44.939Z,10.83
2018-08-03T02:06:13.124Z,11.13
2018-08-03T02:08:41.318Z,11.97
2018-08-03T02:11:09.514Z,13.07
2018-08-03T02:13:37.703Z,12.03
2018-08-03T02:16:05.878Z,11.70
2018-08-03T02:18:34.083Z,11.70
2018-08-03T02:21:02.248Z,11.97
2018-08-03T02:23:30.427Z,12.43
2018-08-03T02:25:58.735Z,11.90
2018-08-03T02:28:27.083Z,12.60
2018-08-03T02:30:55.309Z,13.03
2018-08-03T02:33:23.630Z,12.57
2018-08-03T02:35:51.818Z,12.23
2018-08-03T02:38:20.033Z,12.97
2018-08-03T02:40:48.232Z,12.03
2018-08-03T02:43:16.443Z,13.00
2018-08-03T02:45:44.642Z,13.77
2018-08-03T02:48:12.855Z,12.37
2018-08-03T02:50:41.053Z,11.60
2018-08-03T02:53:09.280Z,13.53
2018-08-03T02:55:37.472Z,12.33
2018-08-03T02:58:05.702Z,12.83
2018-08-03T03:00:33.945Z,11.90
2018-08-03T03:03:02.171Z,13.33
2018-08-03T03:05:30.376Z,12.37
2018-08-03T03:07:58.578Z,12.80
2018-08-03T03:10:26.790Z,12.63
2018-08-03T03:12:55.000Z,12.77
2018-08-03T03:15:23.211Z,13.50
2018-08-03T03:17:51.407Z,12.97
2018-08-03T03:20:19.623Z,13.40
2018-08-03T03:22:47.813Z,13.77
2018-08-03T03:25:16.146Z,13.40
2018-08-03T03:27:44.375Z,13.60
2018-08-03T03:30:12.590Z,13.77
2018-08-03T03:32:40.847Z,13.60
2018-08-03T03:35:09.024Z,14.60
2018-08-03T03:37:37.235Z,14.07
2018-08-03T03:40:05.458Z,13.87
2018-08-03T03:42:33.663Z,13.43
2018-08-03T03:45:01.880Z,13.43
2018-08-03T03:47:30.078Z,14.60
2018-08-03T03:49:58.293Z,13.27
2018-08-03T03:52:26.503Z,13.20
2018-08-03T03:54:55.084Z,14.40
2018-08-03T03:57:23.281Z,13.83
2018-08-03T03:59:51.487Z,14.30
2018-08-03T04:02:19.684Z,13.90
2018-08-03T04:04:47.905Z,14.87
2018-08-03T04:07:16.102Z,14.10
2018-08-03T04:09:44.330Z,14.50
2018-08-03T04:12:12.555Z,14.07
2018-08-03T04:14:40.766Z,15.27
2018-08-03T04:17:08.971Z,14.30
2018-08-03T04:19:37.315Z,15.50
2018-08-03T04:22:05.510Z,15.40
2018-08-03T04:24:33.736Z,15.33
2018-08-03T04:27:01.935Z,16.17
2018-08-03T04:29:30.191Z,15.03
2018-08-03T04:31:58.414Z,14.97
2018-08-03T04:34:26.639Z,15.40
2018-08-03T04:36:54.871Z,15.50
2018-08-03T04:39:23.098Z,16.90
2018-08-03T04:41:51.325Z,15.80
2018-08-03T04:44:19.562Z,15.40
2018-08-03T04:46:47.804Z,15.40
2018-08-03T04:49:16.003Z,16.33
2018-08-03T04:51:44.242Z,16.40
2018-08-03T04:54:12.464Z,15.87
2018-08-03T04:56:40.694Z,15.10
2018-08-03T04:59:08.902Z,14.57
2018-08-03T05:01:37.119Z,15.00
2018-08-03T05:04:05.330Z,15.90
2018-08-03T05:06:33.663Z,16.83
2018-08-03T05:09:01.854Z,16.30
2018-08-03T05:11:30.071Z,14.90
2018-08-03T05:13:58.274Z,15.60
2018-08-03T05:16:26.507Z,15.17
2018-08-03T05:18:54.754Z,16.10
2018-08-03T05:21:22.979Z,14.97
2018-08-03T05:23:51.186Z,15.87
2018-08-03T05:26:19.414Z,16.03
2018-08-03T05:28:47.611Z,16.37
2018-08-03T05:31:15.821Z,15.43
2018-08-03T05:33:44.017Z,16.23
2018-08-03T05:36:12.269Z,15.73
2018-08-03T05:38:40.437Z,16.03
2018-08-03T05:41:08.648Z,15.90
2018-08-03T05:43:36.842Z,15.97
2018-08-03T05:46:05.070Z,16.30
2018-08-03T05:48:33.282Z,16.57
2018-08-03T05:51:01.497Z,16.20
2018-08-03T05:53:29.702Z,16.13
2018-08-03T05:55:57.894Z,16.47
2018-08-03T05:58:26.116Z,16.47
2018-08-03T06:00:54.323Z,16.30
2018-08-03T06:03:22.545Z,15.60
2018-08-03T06:05:50.759Z,15.53
2018-08-03T06:08:19.027Z,16.00
2018-08-03T06:10:47.158Z,15.73
2018-08-03T06:13:15.363Z,16.50
2018-08-03T06:15:43.566Z,15.97
2018-08-03T06:18:11.774Z,16.53
2018-08-03T06:20:39.975Z,15.00
2018-08-03T06:23:08.190Z,14.70
2018-08-03T06:25:36.382Z,16.00
2018-08-03T06:28:04.638Z,15.37
2018-08-03T06:30:32.849Z,14.77
2018-08-03T06:33:01.080Z,15.70
2018-08-03T06:35:29.280Z,16.83
2018-08-03T06:37:57.516Z,14.50
2018-08-03T06:40:25.776Z,14.63
2018-08-03T06:42:53.999Z,13.80
2018-08-03T06:45:22.220Z,15.50
2018-08-03T06:47:50.451Z,14.63
2018-08-03T06:50:18.661Z,13.60
2018-08-03T06:52:46.873Z,15.70
2018-08-03T06:55:15.096Z,14.40
2018-08-03T06:57:43.318Z,15.63
2018-08-03T07:00:11.578Z,15.00
2018-08-03T07:02:39.854Z,14.90
2018-08-03T07:05:08.056Z,14.60
2018-08-03T07:07:36.275Z,14.33
2018-08-03T07:10:04.641Z,13.10
2018-08-03T07:12:32.875Z,14.33
2018-08-03T07:15:01.159Z,13.20
2018-08-03T07:17:29.348Z,14.47
2018-08-03T07:19:57.574Z,12.60
2018-08-03T07:22:25.860Z,14.87
2018-08-03T07:24:54.179Z,12.90
2018-08-03T07:27:22.419Z,13.63
2018-08-03T07:29:50.641Z,13.50
2018-08-03T07:32:18.826Z,14.53
2018-08-03T07:34:47.057Z,13.27
2018-08-03T07:37:15.360Z,14.67
2018-08-03T07:39:43.558Z,14.00
2018-08-03T07:42:11.766Z,13.37
2018-08-03T07:44:40.015Z,13.90
2018-08-03T07:47:08.386Z,13.23
2018-08-03T07:49:36.584Z,13.83
2018-08-03T07:52:04.815Z,12.03
2018-08-03T07:54:33.023Z,12.67
2018-08-03T07:57:01.223Z,12.80
2018-08-03T07:59:29.434Z,13.10
2018-08-03T08:01:57.622Z,13.77
2018-08-03T08:04:25.895Z,17.50
2018-08-03T08:06:54.077Z,13.60
2018-08-03T08:09:22.286Z,13.60
2018-08-03T08:11:50.512Z,13.50
2018-08-03T08:14:18.701Z,14.43
2018-08-03T08:16:46.915Z,14.07
2018-08-03T08:19:15.130Z,14.73
2018-08-03T08:21:43.325Z,12.97
2018-08-03T08:24:11.525Z,14.13
2018-08-03T08:26:39.730Z,14.23
2018-08-03T08:29:07.973Z,13.57
2018-08-03T08:31:36.252Z,14.27
2018-08-03T08:34:04.422Z,12.50
2018-08-03T08:36:32.629Z,12.90
2018-08-03T08:39:00.867Z,13.23
2018-08-03T08:41:29.096Z,13.40
2018-08-03T08:43:57.467Z,13.13
2018-08-03T08:46:25.545Z,14.90
2018-08-03T08:48:53.750Z,13.90
2018-08-03T08:51:21.970Z,13.03
2018-08-03T08:53:50.169Z,14.30
2018-08-03T08:56:18.389Z,13.80
2018-08-03T08:58:46.585Z,14.10
2018-08-03T09:01:14.815Z,12.73
2018-08-03T09:03:43.027Z,13.93
2018-08-03T09:06:11.255Z,13.73
2018-08-03T09:08:39.460Z,13.03
2018-08-03T09:11:08.252Z,13.90
2018-08-03T09:13:36.531Z,13.47
2018-08-03T09:16:04.753Z,12.97
2018-08-03T09:18:32.977Z,13.80
2018-08-03T09:21:01.175Z,13.57
2018-08-03T09:23:29.387Z,14.13
2018-08-03T09:25:57.609Z,14.70
2018-08-03T09:28:25.894Z,14.47
2018-08-03T09:30:54.125Z,13.50
2018-08-03T09:33:22.328Z,14.77
2018-08-03T09:35:50.554Z,15.20
2018-08-03T09:38:18.782Z,14.00
2018-08-03T09:40:47.012Z,15.70
2018-08-03T09:43:15.231Z,14.73
2018-08-03T09:45:43.458Z,15.43
2018-08-03T09:48:11.695Z,14.97
2018-08-03T09:50:39.903Z,14.07
2018-08-03T09:53:08.131Z,14.40
2018-08-03T09:55:36.355Z,15.10
2018-08-03T09:58:04.629Z,13.27
2018-08-03T10:00:39.319Z,14.73
2018-08-03T10:03:07.914Z,16.10
2018-08-03T10:05:36.150Z,14.33
2018-08-03T10:08:04.872Z,15.47
2018-08-03T10:10:33.582Z,15.57
2018-08-03T10:13:02.455Z,13.23
2018-08-03T10:15:31.181Z,14.73
2018-08-03T10:17:59.462Z,15.93
2018-08-03T10:20:28.205Z,14.80
2018-08-03T10:22:56.940Z,15.57
2018-08-03T10:25:25.167Z,14.40
2018-08-03T10:27:53.406Z,14.80
2018-08-03T10:30:22.291Z,15.30
2018-08-03T10:32:51.085Z,15.43
2018-08-03T10:35:19.607Z,14.77
2018-08-03T10:37:47.845Z,15.53
2018-08-03T10:40:16.065Z,14.47
2018-08-03T10:42:44.318Z,14.67
2018-08-03T10:45:12.525Z,14.50
2018-08-03T10:47:40.882Z,14.63
2018-08-03T10:50:09.177Z,15.10
2018-08-03T10:52:37.402Z,15.30
2018-08-03T10:55:05.623Z,15.50
2018-08-03T10:57:33.855Z,16.13
2018-08-03T11:00:02.104Z,15.20
2018-08-03T11:02:30.339Z,15.33
2018-08-03T11:04:58.568Z,15.60
2018-08-03T11:07:26.785Z,15.57
2018-08-03T11:09:55.035Z,16.20
2018-08-03T11:12:23.267Z,15.60
2018-08-03T11:14:51.494Z,15.30
2018-08-03T11:17:19.720Z,16.10
2018-08-03T11:19:47.934Z,14.70
2018-08-03T11:22:16.195Z,16.70
2018-08-03T11:24:44.436Z,15.50
2018-08-03T11:27:12.673Z,15.40
2018-08-03T11:29:40.929Z,16.57
2018-08-03T11:32:09.135Z,16.13
2018-08-03T11:34:37.347Z,16.13
2018-08-03T11:37:05.881Z,15.90
2018-08-03T11:39:34.093Z,16.13
2018-08-03T11:42:02.338Z,16.43
2018-08-03T11:44:30.546Z,16.20
2018-08-03T11:46:59.195Z,15.60
2018-08-03T11:49:27.412Z,16.83
2018-08-03T11:51:55.653Z,15.73
2018-08-03T11:54:23.869Z,16.23
2018-08-03T11:56:52.096Z,15.30
2018-08-03T11:59:20.340Z,15.70
2018-08-03T12:01:48.762Z,15.93
2018-08-03T12:04:16.923Z,15.03
2018-08-03T12:06:45.147Z,15.57
2018-08-03T12:09:13.371Z,16.47
2018-08-03T12:11:41.575Z,15.20
2018-08-03T12:14:09.806Z,15.73
2018-08-03T12:16:38.021Z,16.13
2018-08-03T12:19:06.267Z,16.13
2018-08-03T12:21:34.497Z,15.90
2018-08-03T12:24:02.734Z,15.87
2018-08-03T12:26:30.943Z,15.50
2018-08-03T12:28:59.148Z,15.33
2018-08-03T12:31:27.414Z,15.50
2018-08-03T12:33:55.633Z,15.50
2018-08-03T12:36:23.818Z,16.20
2018-08-03T12:38:52.002Z,15.20
2018-08-03T12:41:20.242Z,15.93
2018-08-03T12:43:48.460Z,15.27
2018-08-03T12:46:16.649Z,16.37
2018-08-03T12:48:44.845Z,15.17
2018-08-03T12:51:13.053Z,15.40
2018-08-03T12:53:41.265Z,15.50
2018-08-03T12:56:09.459Z,15.43
2018-08-03T12:58:37.677Z,14.90
2018-08-03T13:01:05.950Z,16.03
2018-08-03T13:03:34.204Z,14.50
2018-08-03T13:06:02.410Z,16.03
2018-08-03T13:08:30.765Z,14.73
2018-08-03T13:10:58.855Z,15.70
2018-08-03T13:13:27.078Z,15.67
2018-08-03T13:15:55.291Z,15.43
2018-08-03T13:18:23.490Z,14.90
2018-08-03T13:20:51.681Z,14.70
2018-08-03T13:23:19.893Z,15.13
2018-08-03T13:25:48.084Z,14.37
2018-08-03T13:28:16.302Z,15.23
2018-08-03T13:30:44.505Z,15.00
2018-08-03T13:33:12.696Z,15.53
2018-08-03T13:35:40.903Z,15.53
2018-08-03T13:38:09.099Z,16.07
2018-08-03T13:40:37.297Z,15.27
2018-08-03T13:43:05.490Z,14.87
2018-08-03T13:45:33.698Z,14.60
2018-08-03T13:48:01.904Z,14.10
2018-08-03T13:50:30.123Z,14.50
2018-08-03T13:52:58.323Z,15.87
2018-08-03T13:55:26.518Z,14.90
2018-08-03T13:57:54.749Z,14.60
2018-08-03T14:00:22.954Z,14.80
2018-08-03T14:02:51.154Z,15.17
2018-08-03T14:05:19.365Z,15.50
2018-08-03T14:07:47.554Z,15.10
2018-08-03T14:10:15.762Z,15.30
2018-08-03T14:12:43.942Z,14.60
2018-08-03T14:15:12.144Z,14.97
2018-08-03T14:17:40.333Z,14.80
2018-08-03T14:20:08.564Z,14.50
2018-08-03T14:22:36.817Z,14.20
2018-08-03T14:25:05.035Z,14.57
2018-08-03T14:27:33.513Z,14.00
2018-08-03T14:30:01.800Z,13.70
2018-08-03T14:32:29.978Z,13.87
2018-08-03T14:34:58.200Z,14.30
2018-08-03T14:37:26.419Z,14.23
2018-08-03T14:39:54.631Z,14.40
2018-08-03T14:42:22.841Z,14.73
2018-08-03T14:44:51.061Z,13.60
2018-08-03T14:47:19.283Z,14.60
2018-08-03T14:49:47.514Z,14.47
2018-08-03T14:52:15.740Z,16.53
2018-08-03T14:54:43.957Z,14.40
2018-08-03T14:57:12.166Z,16.23
2018-08-03T14:59:40.397Z,14.00
2018-08-03T15:02:08.598Z,14.47
2018-08-03T15:04:36.839Z,14.00
2018-08-03T15:07:05.167Z,13.27
2018-08-03T15:09:33.454Z,14.30
2018-08-03T15:12:01.658Z,12.80
2018-08-03T15:14:29.998Z,12.73
2018-08-03T15:16:58.217Z,12.93
2018-08-03T15:19:26.466Z,13.03
2018-08-03T15:21:54.676Z,12.40
2018-08-03T15:24:22.895Z,12.33
2018-08-03T15:26:51.236Z,12.90
2018-08-03T15:29:19.463Z,13.63
2018-08-03T15:31:47.671Z,14.17
2018-08-03T15:34:15.875Z,13.10
2018-08-03T15:36:44.793Z,13.70
2018-08-03T15:39:13.126Z,12.57
2018-08-03T15:41:41.331Z,13.10
2018-08-03T15:44:09.558Z,12.10
2018-08-03T15:46:37.910Z,13.70
2018-08-03T15:49:06.155Z,12.87
2018-08-03T15:51:34.360Z,13.20
2018-08-03T15:54:02.730Z,12.43
2018-08-03T15:56:32.954Z,13.07
2018-08-03T15:59:01.209Z,13.50
2018-08-03T16:01:29.430Z,12.77
2018-08-03T16:03:57.625Z,11.97
2018-08-03T16:06:27.328Z,12.93
2018-08-03T16:08:55.533Z,12.27
2018-08-03T16:11:23.737Z,15.27
2018-08-03T16:13:51.948Z,16.57
2018-08-03T16:16:20.343Z,19.40
2018-08-03T16:18:48.544Z,16.60
2018-08-03T16:21:16.822Z,16.90
2018-08-03T16:23:45.052Z,16.53
2018-08-03T16:26:13.272Z,16.97
2018-08-03T16:28:41.533Z,17.63
2018-08-03T16:31:09.750Z,18.43
2018-08-03T16:33:37.972Z,19.77
2018-08-03T16:36:06.206Z,17.00
2018-08-03T16:38:34.476Z,18.77
2018-08-03T16:41:02.727Z,18.90
2018-08-03T16:43:30.919Z,17.10
2018-08-03T16:45:59.156Z,16.50
2018-08-03T16:48:27.449Z,18.70
2018-08-03T16:50:55.675Z,17.97
2018-08-03T16:53:23.872Z,18.40
2018-08-03T16:55:52.333Z,17.63
2018-08-03T16:58:20.574Z,18.10
2018-08-03T17:00:48.784Z,17.70
2018-08-03T17:03:16.979Z,16.23
2018-08-03T17:05:45.177Z,16.97
2018-08-03T17:08:13.378Z,16.87
2018-08-03T17:10:41.574Z,16.73
2018-08-03T17:13:09.852Z,16.97
2018-08-03T17:15:38.047Z,18.03
2018-08-03T17:18:06.236Z,17.20
2018-08-03T17:20:34.456Z,18.37
2018-08-03T17:23:02.780Z,18.10
2018-08-03T17:25:30.976Z,19.07
2018-08-03T17:27:59.239Z,18.20
2018-08-03T17:30:27.409Z,17.70
2018-08-03T17:32:55.620Z,17.53
2018-08-03T17:35:23.843Z,17.23
2018-08-03T17:37:52.063Z,17.80
2018-08-03T17:40:20.293Z,17.33
2018-08-03T17:42:48.544Z,17.93
2018-08-03T17:45:16.711Z,16.00
2018-08-03T17:47:44.945Z,18.10
2018-08-03T17:50:13.156Z,17.00
2018-08-03T17:52:41.365Z,16.40
2018-08-03T17:55:09.547Z,17.00
2018-08-03T17:57:38.048Z,17.30
2018-08-03T18:00:06.716Z,17.23
2018-08-03T18:02:34.913Z,17.97
2018-08-03T18:05:03.149Z,17.40
2018-08-03T18:07:31.347Z,16.73
2018-08-03T18:09:59.543Z,15.67
2018-08-03T18:12:27.818Z,16.00
2018-08-03T18:14:56.024Z,17.40
2018-08-03T18:17:24.232Z,17.30
2018-08-03T18:19:52.443Z,17.97
2018-08-03T18:22:20.659Z,18.10
2018-08-03T18:24:48.877Z,16.50
2018-08-03T18:27:17.125Z,15.63
2018-08-03T18:29:45.367Z,16.10
2018-08-03T18:32:13.563Z,16.23
2018-08-03T18:34:41.795Z,16.10
2018-08-03T18:37:09.992Z,16.97
2018-08-03T18:39:38.238Z,17.03
2018-08-03T18:42:06.459Z,16.93
2018-08-03T18:44:34.708Z,16.03
2018-08-03T18:47:02.911Z,16.30
2018-08-03T18:49:31.132Z,16.40
2018-08-03T18:51:59.324Z,16.30
2018-08-03T18:54:27.518Z,17.10
2018-08-03T18:56:55.710Z,17.23
2018-08-03T18:59:23.914Z,15.60
2018-08-03T19:01:52.163Z,17.53
2018-08-03T19:04:20.376Z,16.17
2018-08-03T19:06:48.570Z,16.70
2018-08-03T19:09:16.780Z,15.77
2018-08-03T19:11:44.975Z,18.20
2018-08-03T19:14:13.192Z,17.43
2018-08-03T19:16:41.469Z,17.60
2018-08-03T19:19:09.693Z,15.83
2018-08-03T19:21:38.148Z,15.60
2018-08-03T19:24:06.609Z,15.70
2018-08-03T19:26:34.814Z,15.60
2018-08-03T19:29:03.045Z,16.87
2018-08-03T19:31:31.255Z,15.20
2018-08-03T19:33:59.465Z,16.90
2018-08-03T19:36:27.664Z,14.90
2018-08-03T19:38:55.877Z,15.37
2018-08-03T19:41:24.085Z,14.43
2018-08-03T19:43:52.501Z,14.57
2018-08-03T19:46:20.732Z,15.07
2018-08-03T19:48:48.952Z,15.30
2018-08-03T19:51:17.244Z,14.60
2018-08-03T19:53:45.448Z,14.00
2018-08-03T19:56:13.646Z,14.60
2018-08-03T19:58:42.001Z,15.07
2018-08-03T20:01:10.184Z,15.20
2018-08-03T20:03:38.769Z,14.67
2018-08-03T20:06:06.981Z,13.90
2018-08-03T20:08:35.361Z,13.67
2018-08-03T20:11:03.562Z,14.10
2018-08-03T20:13:31.893Z,15.10
2018-08-03T20:16:00.287Z,15.57
2018-08-03T20:18:28.499Z,13.90
2018-08-03T20:20:56.725Z,15.53
2018-08-03T20:23:24.959Z,14.80
2018-08-03T20:25:53.226Z,15.93
2018-08-03T20:28:21.490Z,16.30
2018-08-03T20:30:49.694Z,15.13
2018-08-03T20:33:18.104Z,15.30
2018-08-03T20:35:46.330Z,13.87
2018-08-03T20:38:14.596Z,14.13
2018-08-03T20:40:42.912Z,14.50
2018-08-03T20:43:11.237Z,15.07
2018-08-03T20:45:39.547Z,14.93
2018-08-03T20:48:07.866Z,15.13
2018-08-03T20:50:36.099Z,16.67
2018-08-03T20:53:04.327Z,17.77
2018-08-03T20:55:32.570Z,17.97
2018-08-03T20:58:01.103Z,16.97
2018-08-03T21:00:29.360Z,15.43
2018-08-03T21:02:57.582Z,14.67
2018-08-03T21:05:25.810Z,16.97
2018-08-03T21:07:54.019Z,17.30
2018-08-03T21:10:22.240Z,16.17
2018-08-03T21:12:50.471Z,16.47
2018-08-03T21:15:18.679Z,16.50
2018-08-03T21:17:46.889Z,16.67
2018-08-03T21:20:15.114Z,16.87
2018-08-03T21:22:43.324Z,18.83
2018-08-03T21:25:11.561Z,17.43
2018-08-03T21:27:39.771Z,19.07
2018-08-03T21:30:09.148Z,19.50
2018-08-03T21:32:37.390Z,22.20
2018-08-03T21:35:09.038Z,24.40
2018-08-03T21:37:37.240Z,20.67
2018-08-03T21:40:05.773Z,19.50
2018-08-03T21:42:34.176Z,18.60
2018-08-03T21:45:02.420Z,18.00
2018-08-03T21:47:30.646Z,18.43
2018-08-03T21:49:59.710Z,17.97
2018-08-03T21:52:27.934Z,18.63
2018-08-03T21:54:56.121Z,17.80
2018-08-03T21:57:24.350Z,18.97
2018-08-03T21:59:52.545Z,17.30
2018-08-03T22:02:20.753Z,18.53
2018-08-03T22:04:48.941Z,17.73
2018-08-03T22:07:17.134Z,19.93
2018-08-03T22:09:45.333Z,18.80
2018-08-03T22:12:13.590Z,18.70
2018-08-03T22:14:41.740Z,19.67
2018-08-03T22:17:09.979Z,18.60
2018-08-03T22:19:38.170Z,17.03
2018-08-03T22:22:06.357Z,18.20
2018-08-03T22:24:34.698Z,17.77
2018-08-03T22:27:02.874Z,18.97
2018-08-03T22:29:31.097Z,18.40
2018-08-03T22:31:59.325Z,18.20
2018-08-03T22:34:27.529Z,17.80
2018-08-03T22:36:55.772Z,17.10
2018-08-03T22:39:23.998Z,18.80
2018-08-03T22:41:52.230Z,17.27
2018-08-03T22:44:20.431Z,18.90
2018-08-03T22:46:48.633Z,18.80
2018-08-03T22:49:16.836Z,18.87
2018-08-03T22:51:45.064Z,18.73
2018-08-03T22:54:13.249Z,18.93
2018-08-03T22:56:41.474Z,20.57
2018-08-03T22:59:09.673Z,18.27
2018-08-03T23:01:37.870Z,18.63
2018-08-03T23:04:06.089Z,19.90
2018-08-03T23:06:34.301Z,19.23
2018-08-03T23:09:02.494Z,17.60
2018-08-03T23:11:30.677Z,18.37
2018-08-03T23:13:58.914Z,17.77
2018-08-03T23:16:27.098Z,18.10
2018-08-03T23:18:55.301Z,18.87
2018-08-03T23:21:23.484Z,18.73
2018-08-03T23:23:51.688Z,17.50
2018-08-03T23:26:19.882Z,19.07
2018-08-03T23:28:48.086Z,18.03
2018-08-03T23:31:16.282Z,18.50
2018-08-03T23:33:44.484Z,19.73
2018-08-03T23:36:12.677Z,18.50
2018-08-03T23:38:40.880Z,18.50
2018-08-03T23:41:09.070Z,19.17
2018-08-03T23:43:37.294Z,19.20
2018-08-03T23:46:05.527Z,19.80
2018-08-03T23:48:33.732Z,18.67
2018-08-03T23:51:01.931Z,18.90
2018-08-03T23:53:30.134Z,19.70
2018-08-03T23:55:58.338Z,19.93
2018-08-03T23:58:26.538Z,19.30
